sensor_id;sensor_type;location;lat;lon;timestamp;temperature;humidity
45685;DHT22;46836;48.388;16.210;2024-03-23T00:51:26;12.50;99.90
45685;DHT22;46836;48.388;16.210;2024-03-23T00:56:18;12.50;99.90
45685;DHT22;46836;48.388;16.210;2024-03-23T00:58:44;12.50;99.90
45685;DHT22;46836;48.388;16.210;2024-03-23T01:01:10;12.50;99.90
45685;DHT22;46836;48.388;16.210;2024-03-23T01:03:36;12.50;99.90
45685;DHT22;46836;48.388;16.210;2024-03-23T01:06:03;12.40;99.90
45685;DHT22;46836;48.388;16.210;2024-03-23T01:08:29;12.40;99.90
45685;DHT22;46836;48.388;16.210;2024-03-23T01:11:00;12.40;99.90
45685;DHT22;46836;48.388;16.210;2024-03-23T01:13:27;12.30;99.90
45685;DHT22;46836;48.388;16.210;2024-03-23T01:15:54;12.30;99.90
45685;DHT22;46836;48.388;16.210;2024-03-23T01:18:22;12.20;99.90
45685;DHT22;46836;48.388;16.210;2024-03-23T01:20:49;12.20;99.90
45685;DHT22;46836;48.388;16.210;2024-03-23T01:23:15;12.30;99.90
45685;DHT22;46836;48.388;16.210;2024-03-23T01:25:41;12.30;99.90
45685;DHT22;46836;48.388;16.210;2024-03-23T01:28:07;12.30;99.90
45685;DHT22;46836;48.388;16.210;2024-03-23T01:30:35;12.30;99.90
45685;DHT22;46836;48.388;16.210;2024-03-23T01:33:01;12.30;99.90
45685;DHT22;46836;48.388;16.210;2024-03-23T01:35:28;12.30;99.90
45685;DHT22;46836;48.388;16.210;2024-03-23T01:37:54;12.30;99.90
45685;DHT22;46836;48.388;16.210;2024-03-23T01:40:21;12.30;99.90
45685;DHT22;46836;48.388;16.210;2024-03-23T01:42:56;12.30;99.90
45685;DHT22;46836;48.388;16.210;2024-03-23T01:45:22;12.40;99.90
45685;DHT22;46836;48.388;16.210;2024-03-23T01:47:50;12.40;99.90
45685;DHT22;46836;48.388;16.210;2024-03-23T01:50:17;12.30;99.90
45685;DHT22;46836;48.388;16.210;2024-03-23T01:52:43;12.30;99.90
45685;DHT22;46836;48.388;16.210;2024-03-23T01:55:10;12.30;99.90
45685;DHT22;46836;48.388;16.210;2024-03-23T01:57:36;12.30;99.90
45685;DHT22;46836;48.388;16.210;2024-03-23T02:00:02;12.30;99.90
45685;DHT22;46836;48.388;16.210;2024-03-23T02:02:28;12.30;99.90
45685;DHT22;46836;48.388;16.210;2024-03-23T02:04:54;12.20;99.90
45685;DHT22;46836;48.388;16.210;2024-03-23T02:07:20;12.20;99.90
45685;DHT22;46836;48.388;16.210;2024-03-23T02:09:46;12.20;99.90
45685;DHT22;46836;48.388;16.210;2024-03-23T02:12:12;12.20;99.90
45685;DHT22;46836;48.388;16.210;2024-03-23T02:14:38;12.20;99.90
45685;DHT22;46836;48.388;16.210;2024-03-23T02:17:04;12.20;99.90
45685;DHT22;46836;48.388;16.210;2024-03-23T02:19:30;12.30;99.90
45685;DHT22;46836;48.388;16.210;2024-03-23T02:21:56;12.30;99.90
45685;DHT22;46836;48.388;16.210;2024-03-23T02:24:22;12.20;99.90
45685;DHT22;46836;48.388;16.210;2024-03-23T02:26:48;12.20;99.90
45685;DHT22;46836;48.388;16.210;2024-03-23T02:29:14;12.20;99.90
45685;DHT22;46836;48.388;16.210;2024-03-23T02:31:40;12.20;99.90
45685;DHT22;46836;48.388;16.210;2024-03-23T02:34:06;12.20;99.90
45685;DHT22;46836;48.388;16.210;2024-03-23T02:36:32;12.10;99.90
45685;DHT22;46836;48.388;16.210;2024-03-23T02:38:58;12.10;99.90
45685;DHT22;46836;48.388;16.210;2024-03-23T02:41:24;12.00;99.90
45685;DHT22;46836;48.388;16.210;2024-03-23T02:43:50;11.90;99.90
45685;DHT22;46836;48.388;16.210;2024-03-23T02:46:16;12.00;99.90
45685;DHT22;46836;48.388;16.210;2024-03-23T02:48:42;12.00;99.90
45685;DHT22;46836;48.388;16.210;2024-03-23T02:51:09;11.90;99.90
45685;DHT22;46836;48.388;16.210;2024-03-23T02:53:36;12.00;99.90
45685;DHT22;46836;48.388;16.210;2024-03-23T02:56:02;11.90;99.90
45685;DHT22;46836;48.388;16.210;2024-03-23T02:58:29;11.90;99.90
45685;DHT22;46836;48.388;16.210;2024-03-23T03:00:55;11.90;99.90
45685;DHT22;46836;48.388;16.210;2024-03-23T03:03:21;11.90;99.90
45685;DHT22;46836;48.388;16.210;2024-03-23T03:05:47;12.00;99.90
45685;DHT22;46836;48.388;16.210;2024-03-23T03:08:13;12.00;99.90
45685;DHT22;46836;48.388;16.210;2024-03-23T03:10:39;12.10;99.90
45685;DHT22;46836;48.388;16.210;2024-03-23T03:13:05;12.00;99.90
45685;DHT22;46836;48.388;16.210;2024-03-23T03:15:31;12.00;99.90
45685;DHT22;46836;48.388;16.210;2024-03-23T03:17:57;12.00;99.90
45685;DHT22;46836;48.388;16.210;2024-03-23T03:20:23;12.00;99.90
45685;DHT22;46836;48.388;16.210;2024-03-23T03:22:50;12.00;99.90
45685;DHT22;46836;48.388;16.210;2024-03-23T03:25:15;12.00;99.90
45685;DHT22;46836;48.388;16.210;2024-03-23T03:27:42;12.00;99.90
45685;DHT22;46836;48.388;16.210;2024-03-23T03:30:08;11.90;99.90
45685;DHT22;46836;48.388;16.210;2024-03-23T03:33:02;11.90;99.90
45685;DHT22;46836;48.388;16.210;2024-03-23T03:35:28;12.00;99.90
45685;DHT22;46836;48.388;16.210;2024-03-23T03:37:55;11.90;99.90
45685;DHT22;46836;48.388;16.210;2024-03-23T03:40:21;11.90;99.90
45685;DHT22;46836;48.388;16.210;2024-03-23T03:42:47;11.90;99.90
45685;DHT22;46836;48.388;16.210;2024-03-23T03:45:14;11.90;99.90
45685;DHT22;46836;48.388;16.210;2024-03-23T03:47:40;11.90;99.90
45685;DHT22;46836;48.388;16.210;2024-03-23T03:50:07;11.90;99.90
45685;DHT22;46836;48.388;16.210;2024-03-23T03:52:33;11.90;99.90
45685;DHT22;46836;48.388;16.210;2024-03-23T03:55:02;11.90;99.90
45685;DHT22;46836;48.388;16.210;2024-03-23T03:57:28;11.90;99.90
45685;DHT22;46836;48.388;16.210;2024-03-23T03:59:54;11.80;99.90
45685;DHT22;46836;48.388;16.210;2024-03-23T04:02:21;11.80;99.90
45685;DHT22;46836;48.388;16.210;2024-03-23T04:04:46;11.70;99.90
45685;DHT22;46836;48.388;16.210;2024-03-23T04:07:13;11.70;99.90
45685;DHT22;46836;48.388;16.210;2024-03-23T04:09:39;11.70;99.90
45685;DHT22;46836;48.388;16.210;2024-03-23T04:12:05;11.70;99.90
45685;DHT22;46836;48.388;16.210;2024-03-23T04:14:32;11.60;99.90
45685;DHT22;46836;48.388;16.210;2024-03-23T04:16:58;11.60;99.90
45685;DHT22;46836;48.388;16.210;2024-03-23T04:19:23;11.60;99.90
45685;DHT22;46836;48.388;16.210;2024-03-23T04:21:49;11.60;99.90
45685;DHT22;46836;48.388;16.210;2024-03-23T04:24:15;11.60;99.90
45685;DHT22;46836;48.388;16.210;2024-03-23T04:26:42;11.60;99.90
45685;DHT22;46836;48.388;16.210;2024-03-23T04:29:09;11.60;99.90
45685;DHT22;46836;48.388;16.210;2024-03-23T04:31:35;11.60;99.90
45685;DHT22;46836;48.388;16.210;2024-03-23T04:34:01;11.60;99.90
45685;DHT22;46836;48.388;16.210;2024-03-23T04:36:27;11.60;99.90
45685;DHT22;46836;48.388;16.210;2024-03-23T04:38:53;11.60;99.90
45685;DHT22;46836;48.388;16.210;2024-03-23T04:41:19;11.60;99.90
45685;DHT22;46836;48.388;16.210;2024-03-23T04:43:45;11.60;99.90
45685;DHT22;46836;48.388;16.210;2024-03-23T04:46:11;11.50;99.90
45685;DHT22;46836;48.388;16.210;2024-03-23T04:48:37;11.50;99.90
45685;DHT22;46836;48.388;16.210;2024-03-23T04:51:04;11.50;99.90
45685;DHT22;46836;48.388;16.210;2024-03-23T04:53:30;11.50;99.90
45685;DHT22;46836;48.388;16.210;2024-03-23T04:55:56;11.50;99.90
45685;DHT22;46836;48.388;16.210;2024-03-23T04:58:23;11.40;99.90
45685;DHT22;46836;48.388;16.210;2024-03-23T05:00:56;11.40;99.90
45685;DHT22;46836;48.388;16.210;2024-03-23T05:03:23;11.40;99.90
45685;DHT22;46836;48.388;16.210;2024-03-23T05:05:50;11.40;99.90
45685;DHT22;46836;48.388;16.210;2024-03-23T05:08:16;11.40;99.90
45685;DHT22;46836;48.388;16.210;2024-03-23T05:10:42;11.50;99.90
45685;DHT22;46836;48.388;16.210;2024-03-23T05:13:09;11.50;99.90
45685;DHT22;46836;48.388;16.210;2024-03-23T05:15:35;11.50;99.90
45685;DHT22;46836;48.388;16.210;2024-03-23T05:18:01;11.40;99.90
45685;DHT22;46836;48.388;16.210;2024-03-23T05:20:27;11.50;99.90
45685;DHT22;46836;48.388;16.210;2024-03-23T05:22:55;11.50;99.90
45685;DHT22;46836;48.388;16.210;2024-03-23T05:25:21;11.50;99.90
45685;DHT22;46836;48.388;16.210;2024-03-23T05:27:47;11.50;99.90
45685;DHT22;46836;48.388;16.210;2024-03-23T05:30:13;11.50;99.90
45685;DHT22;46836;48.388;16.210;2024-03-23T05:32:40;11.50;99.90
45685;DHT22;46836;48.388;16.210;2024-03-23T05:35:09;11.60;99.90
45685;DHT22;46836;48.388;16.210;2024-03-23T05:37:35;11.60;99.90
45685;DHT22;46836;48.388;16.210;2024-03-23T05:40:03;11.60;99.90
45685;DHT22;46836;48.388;16.210;2024-03-23T05:42:29;11.70;99.90
45685;DHT22;46836;48.388;16.210;2024-03-23T05:44:55;11.70;99.90
45685;DHT22;46836;48.388;16.210;2024-03-23T05:47:21;11.70;99.90
45685;DHT22;46836;48.388;16.210;2024-03-23T05:49:47;11.80;99.90
45685;DHT22;46836;48.388;16.210;2024-03-23T05:52:13;11.80;99.90
45685;DHT22;46836;48.388;16.210;2024-03-23T05:54:39;11.90;99.90
45685;DHT22;46836;48.388;16.210;2024-03-23T05:57:05;11.90;99.90
45685;DHT22;46836;48.388;16.210;2024-03-23T05:59:34;12.00;99.90
45685;DHT22;46836;48.388;16.210;2024-03-23T06:02:00;12.00;99.90
45685;DHT22;46836;48.388;16.210;2024-03-23T06:04:26;12.00;99.90
45685;DHT22;46836;48.388;16.210;2024-03-23T06:06:52;12.00;99.90
45685;DHT22;46836;48.388;16.210;2024-03-23T06:09:19;12.10;99.90
45685;DHT22;46836;48.388;16.210;2024-03-23T06:11:49;12.10;99.90
45685;DHT22;46836;48.388;16.210;2024-03-23T06:14:15;12.20;99.90
45685;DHT22;46836;48.388;16.210;2024-03-23T06:16:41;12.20;99.90
45685;DHT22;46836;48.388;16.210;2024-03-23T06:19:07;12.30;99.90
45685;DHT22;46836;48.388;16.210;2024-03-23T06:21:33;12.30;99.90
45685;DHT22;46836;48.388;16.210;2024-03-23T06:23:59;12.40;99.90
45685;DHT22;46836;48.388;16.210;2024-03-23T06:26:25;12.40;99.90
45685;DHT22;46836;48.388;16.210;2024-03-23T06:28:51;12.40;99.90
45685;DHT22;46836;48.388;16.210;2024-03-23T06:31:17;12.50;99.90
45685;DHT22;46836;48.388;16.210;2024-03-23T06:33:43;12.50;99.90
45685;DHT22;46836;48.388;16.210;2024-03-23T06:36:10;12.50;99.90
45685;DHT22;46836;48.388;16.210;2024-03-23T06:38:37;12.60;99.90
45685;DHT22;46836;48.388;16.210;2024-03-23T06:41:06;12.60;99.90
45685;DHT22;46836;48.388;16.210;2024-03-23T06:43:32;12.60;99.90
45685;DHT22;46836;48.388;16.210;2024-03-23T06:45:58;12.70;99.90
45685;DHT22;46836;48.388;16.210;2024-03-23T06:48:26;12.70;99.90
45685;DHT22;46836;48.388;16.210;2024-03-23T06:50:56;12.70;99.90
45685;DHT22;46836;48.388;16.210;2024-03-23T06:53:23;12.70;99.90
45685;DHT22;46836;48.388;16.210;2024-03-23T06:55:53;12.70;99.90
45685;DHT22;46836;48.388;16.210;2024-03-23T06:58:20;12.80;99.90
45685;DHT22;46836;48.388;16.210;2024-03-23T07:00:46;12.80;99.90
45685;DHT22;46836;48.388;16.210;2024-03-23T07:03:12;12.80;99.90
45685;DHT22;46836;48.388;16.210;2024-03-23T07:05:38;12.80;99.90
45685;DHT22;46836;48.388;16.210;2024-03-23T07:08:05;12.80;99.90
45685;DHT22;46836;48.388;16.210;2024-03-23T07:10:31;12.80;99.90
45685;DHT22;46836;48.388;16.210;2024-03-23T07:12:57;12.70;99.90
45685;DHT22;46836;48.388;16.210;2024-03-23T07:15:23;12.70;99.90
45685;DHT22;46836;48.388;16.210;2024-03-23T07:17:49;12.70;99.90
45685;DHT22;46836;48.388;16.210;2024-03-23T07:20:15;12.60;99.90
45685;DHT22;46836;48.388;16.210;2024-03-23T07:22:41;12.60;99.90
45685;DHT22;46836;48.388;16.210;2024-03-23T07:25:07;12.50;99.90
45685;DHT22;46836;48.388;16.210;2024-03-23T07:27:33;12.50;99.90
45685;DHT22;46836;48.388;16.210;2024-03-23T07:30:00;12.50;99.90
45685;DHT22;46836;48.388;16.210;2024-03-23T07:32:27;12.50;99.90
45685;DHT22;46836;48.388;16.210;2024-03-23T07:34:53;12.60;99.90
45685;DHT22;46836;48.388;16.210;2024-03-23T07:37:19;12.80;99.90
45685;DHT22;46836;48.388;16.210;2024-03-23T07:39:45;13.00;99.90
45685;DHT22;46836;48.388;16.210;2024-03-23T07:42:11;13.20;99.90
45685;DHT22;46836;48.388;16.210;2024-03-23T07:44:37;13.40;99.90
45685;DHT22;46836;48.388;16.210;2024-03-23T07:47:03;13.60;99.90
45685;DHT22;46836;48.388;16.210;2024-03-23T07:49:29;13.80;99.90
45685;DHT22;46836;48.388;16.210;2024-03-23T07:51:55;14.00;99.90
45685;DHT22;46836;48.388;16.210;2024-03-23T07:54:21;14.10;99.90
45685;DHT22;46836;48.388;16.210;2024-03-23T07:56:47;14.30;99.90
45685;DHT22;46836;48.388;16.210;2024-03-23T07:59:13;14.50;99.90
45685;DHT22;46836;48.388;16.210;2024-03-23T08:01:39;14.60;99.90
45685;DHT22;46836;48.388;16.210;2024-03-23T08:04:05;14.80;99.90
45685;DHT22;46836;48.388;16.210;2024-03-23T08:06:31;15.00;99.90
45685;DHT22;46836;48.388;16.210;2024-03-23T08:08:58;15.10;99.90
45685;DHT22;46836;48.388;16.210;2024-03-23T08:11:28;15.30;99.90
45685;DHT22;46836;48.388;16.210;2024-03-23T08:13:55;15.50;99.90
45685;DHT22;46836;48.388;16.210;2024-03-23T08:16:21;15.60;99.90
45685;DHT22;46836;48.388;16.210;2024-03-23T08:18:48;15.70;99.90
45685;DHT22;46836;48.388;16.210;2024-03-23T08:21:14;15.90;99.90
45685;DHT22;46836;48.388;16.210;2024-03-23T08:23:40;16.00;99.90
45685;DHT22;46836;48.388;16.210;2024-03-23T08:26:07;16.10;99.90
45685;DHT22;46836;48.388;16.210;2024-03-23T08:28:34;16.30;99.90
45685;DHT22;46836;48.388;16.210;2024-03-23T08:31:08;16.40;99.90
45685;DHT22;46836;48.388;16.210;2024-03-23T08:33:35;16.50;99.90
45685;DHT22;46836;48.388;16.210;2024-03-23T08:36:06;16.70;99.90
45685;DHT22;46836;48.388;16.210;2024-03-23T08:38:32;16.80;99.90
45685;DHT22;46836;48.388;16.210;2024-03-23T08:41:06;17.00;99.90
45685;DHT22;46836;48.388;16.210;2024-03-23T08:43:40;17.10;99.90
45685;DHT22;46836;48.388;16.210;2024-03-23T08:46:12;17.20;99.90
45685;DHT22;46836;48.388;16.210;2024-03-23T08:48:42;17.30;99.90
45685;DHT22;46836;48.388;16.210;2024-03-23T08:51:11;17.50;99.90
45685;DHT22;46836;48.388;16.210;2024-03-23T08:53:39;17.60;99.90
45685;DHT22;46836;48.388;16.210;2024-03-23T08:56:06;17.80;99.90
45685;DHT22;46836;48.388;16.210;2024-03-23T08:58:34;17.90;99.90
45685;DHT22;46836;48.388;16.210;2024-03-23T09:01:09;18.00;99.90
45685;DHT22;46836;48.388;16.210;2024-03-23T09:03:35;18.10;99.90
45685;DHT22;46836;48.388;16.210;2024-03-23T09:06:13;18.30;99.90
45685;DHT22;46836;48.388;16.210;2024-03-23T09:08:39;18.50;99.90
45685;DHT22;46836;48.388;16.210;2024-03-23T09:11:11;18.60;99.90
45685;DHT22;46836;48.388;16.210;2024-03-23T09:13:38;18.70;99.90
45685;DHT22;46836;48.388;16.210;2024-03-23T09:16:05;18.70;99.90
45685;DHT22;46836;48.388;16.210;2024-03-23T09:18:32;18.80;99.90
45685;DHT22;46836;48.388;16.210;2024-03-23T09:20:58;19.00;99.90
45685;DHT22;46836;48.388;16.210;2024-03-23T09:23:24;19.10;99.90
45685;DHT22;46836;48.388;16.210;2024-03-23T09:25:50;19.20;99.90
45685;DHT22;46836;48.388;16.210;2024-03-23T09:28:16;19.30;99.90
45685;DHT22;46836;48.388;16.210;2024-03-23T09:30:42;19.30;99.90
45685;DHT22;46836;48.388;16.210;2024-03-23T09:33:09;19.40;99.90
45685;DHT22;46836;48.388;16.210;2024-03-23T09:35:43;19.60;99.90
45685;DHT22;46836;48.388;16.210;2024-03-23T09:38:10;19.80;99.90
45685;DHT22;46836;48.388;16.210;2024-03-23T09:40:43;19.80;99.90
45685;DHT22;46836;48.388;16.210;2024-03-23T09:43:09;19.90;99.90
45685;DHT22;46836;48.388;16.210;2024-03-23T09:45:39;20.10;99.90
45685;DHT22;46836;48.388;16.210;2024-03-23T09:48:09;20.10;99.90
45685;DHT22;46836;48.388;16.210;2024-03-23T09:50:39;20.20;99.90
45685;DHT22;46836;48.388;16.210;2024-03-23T09:53:14;20.40;99.90
45685;DHT22;46836;48.388;16.210;2024-03-23T09:55:43;20.60;99.90
45685;DHT22;46836;48.388;16.210;2024-03-23T09:58:24;20.70;99.90
45685;DHT22;46836;48.388;16.210;2024-03-23T10:01:02;20.80;99.90
45685;DHT22;46836;48.388;16.210;2024-03-23T10:03:45;20.90;99.90
45685;DHT22;46836;48.388;16.210;2024-03-23T10:06:11;21.10;99.90
45685;DHT22;46836;48.388;16.210;2024-03-23T10:08:37;21.20;99.90
45685;DHT22;46836;48.388;16.210;2024-03-23T10:11:14;21.30;99.90
45685;DHT22;46836;48.388;16.210;2024-03-23T10:13:44;21.50;99.90
45685;DHT22;46836;48.388;16.210;2024-03-23T10:16:24;21.60;99.90
45685;DHT22;46836;48.388;16.210;2024-03-23T10:18:50;21.60;98.50
45685;DHT22;46836;48.388;16.210;2024-03-23T10:21:16;21.60;99.90
45685;DHT22;46836;48.388;16.210;2024-03-23T10:23:44;21.80;99.50
45685;DHT22;46836;48.388;16.210;2024-03-23T10:26:20;21.80;98.60
45685;DHT22;46836;48.388;16.210;2024-03-23T10:28:55;22.00;98.00
45685;DHT22;46836;48.388;16.210;2024-03-23T10:31:34;22.10;97.30
45685;DHT22;46836;48.388;16.210;2024-03-23T10:34:03;22.20;98.70
45685;DHT22;46836;48.388;16.210;2024-03-23T10:36:30;22.30;98.40
45685;DHT22;46836;48.388;16.210;2024-03-23T10:38:56;22.30;97.80
45685;DHT22;46836;48.388;16.210;2024-03-23T10:41:28;22.40;97.20
45685;DHT22;46836;48.388;16.210;2024-03-23T10:43:58;22.40;96.20
45685;DHT22;46836;48.388;16.210;2024-03-23T10:46:24;22.60;97.30
45685;DHT22;46836;48.388;16.210;2024-03-23T10:48:50;22.50;95.90
45685;DHT22;46836;48.388;16.210;2024-03-23T10:51:16;22.50;95.80
45685;DHT22;46836;48.388;16.210;2024-03-23T10:53:42;22.50;95.90
45685;DHT22;46836;48.388;16.210;2024-03-23T10:56:11;22.40;95.50
45685;DHT22;46836;48.388;16.210;2024-03-23T10:58:38;22.50;96.00
45685;DHT22;46836;48.388;16.210;2024-03-23T11:01:05;22.50;95.10
45685;DHT22;46836;48.388;16.210;2024-03-23T11:03:35;22.50;94.60
45685;DHT22;46836;48.388;16.210;2024-03-23T11:06:03;22.50;92.90
45685;DHT22;46836;48.388;16.210;2024-03-23T11:08:34;22.60;94.70
45685;DHT22;46836;48.388;16.210;2024-03-23T11:11:19;22.70;94.60
45685;DHT22;46836;48.388;16.210;2024-03-23T11:13:53;22.80;92.50
45685;DHT22;46836;48.388;16.210;2024-03-23T11:16:28;22.90;93.00
45685;DHT22;46836;48.388;16.210;2024-03-23T11:19:36;22.90;91.80
45685;DHT22;46836;48.388;16.210;2024-03-23T11:22:03;22.90;91.80
45685;DHT22;46836;48.388;16.210;2024-03-23T11:24:31;22.80;93.80
45685;DHT22;46836;48.388;16.210;2024-03-23T11:26:57;22.80;94.20
45685;DHT22;46836;48.388;16.210;2024-03-23T11:29:30;22.80;93.10
45685;DHT22;46836;48.388;16.210;2024-03-23T11:31:57;22.90;93.40
45685;DHT22;46836;48.388;16.210;2024-03-23T11:34:23;22.90;93.90
45685;DHT22;46836;48.388;16.210;2024-03-23T11:36:50;22.90;92.70
45685;DHT22;46836;48.388;16.210;2024-03-23T11:39:28;23.00;93.30
45685;DHT22;46836;48.388;16.210;2024-03-23T11:41:56;23.10;92.00
45685;DHT22;46836;48.388;16.210;2024-03-23T11:44:25;23.10;92.70
45685;DHT22;46836;48.388;16.210;2024-03-23T11:46:52;23.20;93.50
45685;DHT22;46836;48.388;16.210;2024-03-23T11:49:25;23.20;92.40
45685;DHT22;46836;48.388;16.210;2024-03-23T11:51:53;23.20;91.90
45685;DHT22;46836;48.388;16.210;2024-03-23T11:54:24;23.20;92.80
45685;DHT22;46836;48.388;16.210;2024-03-23T11:57:04;23.50;93.70
45685;DHT22;46836;48.388;16.210;2024-03-23T11:59:37;23.60;91.70
45685;DHT22;46836;48.388;16.210;2024-03-23T12:02:08;23.90;93.30
45685;DHT22;46836;48.388;16.210;2024-03-23T12:04:34;24.00;91.30
45685;DHT22;46836;48.388;16.210;2024-03-23T12:07:19;24.20;93.10
45685;DHT22;46836;48.388;16.210;2024-03-23T12:10:05;24.20;90.80
45685;DHT22;46836;48.388;16.210;2024-03-23T12:12:32;23.60;89.60
45685;DHT22;46836;48.388;16.210;2024-03-23T12:15:06;23.40;91.20
45685;DHT22;46836;48.388;16.210;2024-03-23T12:17:34;22.90;88.60
45685;DHT22;46836;48.388;16.210;2024-03-23T12:20:01;22.60;90.20
45685;DHT22;46836;48.388;16.210;2024-03-23T12:22:27;22.50;91.20
45685;DHT22;46836;48.388;16.210;2024-03-23T12:24:55;22.60;91.40
45685;DHT22;46836;48.388;16.210;2024-03-23T12:27:22;22.60;91.00
45685;DHT22;46836;48.388;16.210;2024-03-23T12:29:48;22.40;90.30
45685;DHT22;46836;48.388;16.210;2024-03-23T12:32:14;22.30;91.00
45685;DHT22;46836;48.388;16.210;2024-03-23T12:34:42;22.00;90.60
45685;DHT22;46836;48.388;16.210;2024-03-23T12:37:08;21.70;92.00
45685;DHT22;46836;48.388;16.210;2024-03-23T12:39:38;21.20;94.40
45685;DHT22;46836;48.388;16.210;2024-03-23T12:42:04;20.60;95.80
45685;DHT22;46836;48.388;16.210;2024-03-23T12:44:30;20.20;96.80
45685;DHT22;46836;48.388;16.210;2024-03-23T12:46:57;19.70;97.40
45685;DHT22;46836;48.388;16.210;2024-03-23T12:49:23;19.20;98.30
45685;DHT22;46836;48.388;16.210;2024-03-23T12:51:56;18.90;98.90
45685;DHT22;46836;48.388;16.210;2024-03-23T12:54:23;18.60;99.90
45685;DHT22;46836;48.388;16.210;2024-03-23T12:56:49;18.10;99.90
45685;DHT22;46836;48.388;16.210;2024-03-23T12:59:15;17.60;99.90
45685;DHT22;46836;48.388;16.210;2024-03-23T13:01:43;17.40;99.90
45685;DHT22;46836;48.388;16.210;2024-03-23T13:04:11;16.90;99.90
45685;DHT22;46836;48.388;16.210;2024-03-23T13:06:38;16.70;99.90
45685;DHT22;46836;48.388;16.210;2024-03-23T13:09:04;16.40;99.90
45685;DHT22;46836;48.388;16.210;2024-03-23T13:11:30;16.00;99.90
45685;DHT22;46836;48.388;16.210;2024-03-23T13:13:56;15.80;99.90
45685;DHT22;46836;48.388;16.210;2024-03-23T13:16:22;15.70;99.90
45685;DHT22;46836;48.388;16.210;2024-03-23T13:18:48;15.60;99.90
45685;DHT22;46836;48.388;16.210;2024-03-23T13:21:14;15.40;99.90
45685;DHT22;46836;48.388;16.210;2024-03-23T13:23:40;15.30;99.90
45685;DHT22;46836;48.388;16.210;2024-03-23T13:26:08;15.10;99.90
45685;DHT22;46836;48.388;16.210;2024-03-23T13:28:34;14.90;99.90
45685;DHT22;46836;48.388;16.210;2024-03-23T13:31:02;14.90;99.90
45685;DHT22;46836;48.388;16.210;2024-03-23T13:33:30;14.80;99.90
45685;DHT22;46836;48.388;16.210;2024-03-23T13:35:58;14.70;99.90
45685;DHT22;46836;48.388;16.210;2024-03-23T13:38:25;14.70;99.90
45685;DHT22;46836;48.388;16.210;2024-03-23T13:40:53;14.60;99.90
45685;DHT22;46836;48.388;16.210;2024-03-23T13:43:21;14.50;99.90
45685;DHT22;46836;48.388;16.210;2024-03-23T13:45:48;14.50;99.90
45685;DHT22;46836;48.388;16.210;2024-03-23T13:48:16;14.50;99.90
45685;DHT22;46836;48.388;16.210;2024-03-23T13:50:42;14.40;99.90
45685;DHT22;46836;48.388;16.210;2024-03-23T13:53:08;14.40;99.90
45685;DHT22;46836;48.388;16.210;2024-03-23T13:55:35;14.40;99.90
45685;DHT22;46836;48.388;16.210;2024-03-23T13:58:01;14.30;99.90
45685;DHT22;46836;48.388;16.210;2024-03-23T14:00:27;14.30;99.90
45685;DHT22;46836;48.388;16.210;2024-03-23T14:02:53;14.30;99.90
45685;DHT22;46836;48.388;16.210;2024-03-23T14:05:19;14.20;99.90
45685;DHT22;46836;48.388;16.210;2024-03-23T14:07:45;14.10;99.90
45685;DHT22;46836;48.388;16.210;2024-03-23T14:10:11;14.00;99.90
45685;DHT22;46836;48.388;16.210;2024-03-23T14:12:37;13.80;99.90
45685;DHT22;46836;48.388;16.210;2024-03-23T14:15:07;13.70;99.90
45685;DHT22;46836;48.388;16.210;2024-03-23T14:17:34;13.60;99.90
45685;DHT22;46836;48.388;16.210;2024-03-23T14:20:00;13.40;99.90
45685;DHT22;46836;48.388;16.210;2024-03-23T14:22:27;13.40;99.90
45685;DHT22;46836;48.388;16.210;2024-03-23T14:24:53;13.30;99.90
45685;DHT22;46836;48.388;16.210;2024-03-23T14:27:20;13.20;99.90
45685;DHT22;46836;48.388;16.210;2024-03-23T14:29:47;13.10;99.90
45685;DHT22;46836;48.388;16.210;2024-03-23T14:32:14;13.00;99.90
45685;DHT22;46836;48.388;16.210;2024-03-23T14:34:41;12.90;99.90
45685;DHT22;46836;48.388;16.210;2024-03-23T14:37:07;12.80;99.90
45685;DHT22;46836;48.388;16.210;2024-03-23T14:39:34;12.60;99.90
45685;DHT22;46836;48.388;16.210;2024-03-23T14:42:06;12.50;99.90
45685;DHT22;46836;48.388;16.210;2024-03-23T14:44:34;12.40;99.90
45685;DHT22;46836;48.388;16.210;2024-03-23T14:47:00;12.40;99.90
45685;DHT22;46836;48.388;16.210;2024-03-23T14:49:26;12.40;99.90
45685;DHT22;46836;48.388;16.210;2024-03-23T14:51:52;12.20;99.90
45685;DHT22;46836;48.388;16.210;2024-03-23T14:54:18;12.20;99.90
45685;DHT22;46836;48.388;16.210;2024-03-23T14:56:44;12.20;99.90
45685;DHT22;46836;48.388;16.210;2024-03-23T14:59:10;12.10;99.90
45685;DHT22;46836;48.388;16.210;2024-03-23T15:01:36;11.90;99.90
45685;DHT22;46836;48.388;16.210;2024-03-23T15:04:02;11.80;99.90
45685;DHT22;46836;48.388;16.210;2024-03-23T15:06:29;11.30;99.90
45685;DHT22;46836;48.388;16.210;2024-03-23T15:08:55;10.90;99.90
45685;DHT22;46836;48.388;16.210;2024-03-23T15:11:21;10.40;99.90
45685;DHT22;46836;48.388;16.210;2024-03-23T15:13:50;10.30;99.90
45685;DHT22;46836;48.388;16.210;2024-03-23T15:16:19;10.00;99.90
45685;DHT22;46836;48.388;16.210;2024-03-23T15:18:46;9.90;99.90
45685;DHT22;46836;48.388;16.210;2024-03-23T15:21:12;9.80;99.90
45685;DHT22;46836;48.388;16.210;2024-03-23T15:23:40;9.70;99.90
45685;DHT22;46836;48.388;16.210;2024-03-23T15:26:09;9.70;99.90
45685;DHT22;46836;48.388;16.210;2024-03-23T15:28:36;9.80;99.90
45685;DHT22;46836;48.388;16.210;2024-03-23T15:31:21;9.90;99.90
45685;DHT22;46836;48.388;16.210;2024-03-23T15:33:47;9.90;99.90
45685;DHT22;46836;48.388;16.210;2024-03-23T15:36:13;10.00;99.90
45685;DHT22;46836;48.388;16.210;2024-03-23T15:38:38;10.20;99.90
45685;DHT22;46836;48.388;16.210;2024-03-23T15:41:05;10.20;99.90
45685;DHT22;46836;48.388;16.210;2024-03-23T15:43:31;10.30;99.90
45685;DHT22;46836;48.388;16.210;2024-03-23T15:45:58;10.30;99.90
45685;DHT22;46836;48.388;16.210;2024-03-23T15:48:26;10.40;99.90
45685;DHT22;46836;48.388;16.210;2024-03-23T15:50:57;10.40;99.90
45685;DHT22;46836;48.388;16.210;2024-03-23T15:53:24;10.40;99.90
45685;DHT22;46836;48.388;16.210;2024-03-23T15:56:04;10.40;99.90
45685;DHT22;46836;48.388;16.210;2024-03-23T15:58:31;10.40;99.90
45685;DHT22;46836;48.388;16.210;2024-03-23T16:01:07;10.40;99.90
45685;DHT22;46836;48.388;16.210;2024-03-23T16:03:37;10.40;99.90
45685;DHT22;46836;48.388;16.210;2024-03-23T16:06:05;10.40;99.90
45685;DHT22;46836;48.388;16.210;2024-03-23T16:08:31;10.30;99.90
45685;DHT22;46836;48.388;16.210;2024-03-23T16:11:02;10.30;99.90
45685;DHT22;46836;48.388;16.210;2024-03-23T16:13:28;10.30;99.90